Time;durP1;ratioP1;P1;durP2;ratioP2;P2;SDS_P1;SDS_P2;PMS_P1;PMS_P2;Temp;Humidity;BMP_temperature;BMP_pressure;BME280_temperature;BME280_humidity;BME280_pressure;Samples;Min_cycle;Max_cycle;Signal;HPM_P1;HPM_P2
2023/09/06 00:01:12;;;;;;;9.73;4.07;;;;;;;;;;5056082;28;20041;-67
2023/09/06 00:03:39;;;;;;;8.40;4.07;;;;;;;;;;5053288;28;20051;-66
2023/09/06 00:06:05;;;;;;;6.20;3.88;;;;;;;;;;5053017;28;20047;-66
2023/09/06 00:08:34;;;;;;;12.75;4.07;;;;;;;;;;5054346;28;20064;-66
2023/09/06 00:11:04;;;;;;;8.65;4.00;;;;;;;;;;5053636;28;20037;-67
2023/09/06 00:13:33;;;;;;;6.70;3.95;;;;;;;;;;5054964;28;20045;-67
2023/09/06 00:16:00;;;;;;;11.40;4.47;;;;;;;;;;5038683;28;20040;-67
2023/09/06 00:18:27;;;;;;;9.40;4.38;;;;;;;;;;5054035;28;20033;-70
2023/09/06 00:20:53;;;;;;;8.35;3.90;;;;;;;;;;5037041;28;20048;-67
2023/09/06 00:23:20;;;;;;;10.63;4.40;;;;;;;;;;5053808;28;20033;-67
2023/09/06 00:25:47;;;;;;;6.82;4.00;;;;;;;;;;5054103;28;20024;-67
2023/09/06 00:28:15;;;;;;;8.10;3.80;;;;;;;;;;5036364;28;20048;-67
2023/09/06 00:30:44;;;;;;;7.57;4.10;;;;;;;;;;5053145;28;20025;-67
2023/09/06 00:33:10;;;;;;;6.03;3.92;;;;;;;;;;5053136;28;20048;-67
2023/09/06 00:35:36;;;;;;;9.25;3.78;;;;;;;;;;5052950;28;20033;-67
2023/09/06 00:38:06;;;;;;;6.75;3.55;;;;;;;;;;5036139;28;20101;-67
2023/09/06 00:40:36;;;;;;;11.50;3.88;;;;;;;;;;5052708;28;20049;-66
2023/09/06 00:43:02;;;;;;;10.88;4.07;;;;;;;;;;5052892;28;20036;-66
2023/09/06 00:45:37;;;;;;;8.27;4.28;;;;;;;;;;5019896;28;20033;-66
2023/09/06 00:48:05;;;;;;;12.20;4.60;;;;;;;;;;5052957;28;20114;-66
2023/09/06 00:50:33;;;;;;;8.02;4.10;;;;;;;;;;5053425;28;20104;-67
2023/09/06 00:52:59;;;;;;;9.50;4.22;;;;;;;;;;5053895;28;20045;-67
2023/09/06 00:55:25;;;;;;;5.75;4.20;;;;;;;;;;5054111;28;20537;-67
2023/09/06 00:57:51;;;;;;;8.15;4.03;;;;;;;;;;5053846;28;20025;-66
2023/09/06 01:00:22;;;;;;;6.65;4.07;;;;;;;;;;5053680;28;20145;-68
2023/09/06 01:02:49;;;;;;;6.65;4.00;;;;;;;;;;5019741;28;20047;-67
2023/09/06 01:05:16;;;;;;;8.60;4.10;;;;;;;;;;5052463;28;20423;-66
2023/09/06 01:07:46;;;;;;;6.82;3.80;;;;;;;;;;5054701;28;20037;-67
2023/09/06 01:10:12;;;;;;;7.97;4.13;;;;;;;;;;5071358;28;20040;-68
2023/09/06 01:12:37;;;;;;;6.43;4.07;;;;;;;;;;5054859;28;20383;-67
2023/09/06 01:15:04;;;;;;;6.40;3.80;;;;;;;;;;5071247;28;20127;-73
2023/09/06 01:17:35;;;;;;;11.13;4.30;;;;;;;;;;5072796;28;20482;-67
2023/09/06 01:20:23;;;;;;;6.38;3.72;;;;;;;;;;5038737;28;20040;-67
2023/09/06 01:22:56;;;;;;;8.30;4.13;;;;;;;;;;5054533;28;20032;-67
2023/09/06 01:25:23;;;;;;;8.23;3.78;;;;;;;;;;5054973;28;20480;-66
2023/09/06 01:27:50;;;;;;;9.57;4.20;;;;;;;;;;5054420;28;20025;-66
2023/09/06 01:30:15;;;;;;;10.48;3.88;;;;;;;;;;5037366;28;20048;-67
2023/09/06 01:32:41;;;;;;;8.30;3.80;;;;;;;;;;5070720;28;20423;-67
2023/09/06 01:35:10;;;;;;;6.53;3.92;;;;;;;;;;5070819;28;20040;-67
2023/09/06 01:37:37;;;;;;;5.50;3.80;;;;;;;;;;5054498;28;20079;-68
2023/09/06 01:40:14;;;;;;;13.48;4.20;;;;;;;;;;5053928;28;20495;-67
2023/09/06 01:42:39;;;;;;;8.95;4.10;;;;;;;;;;5070969;28;20123;-66
2023/09/06 01:45:06;;;;;;;9.80;3.95;;;;;;;;;;5052796;28;20557;-67
2023/09/06 01:47:32;;;;;;;7.43;3.95;;;;;;;;;;5035994;28;20088;-67
2023/09/06 01:49:58;;;;;;;9.15;3.90;;;;;;;;;;5035229;28;20045;-68
2023/09/06 01:52:24;;;;;;;12.55;4.20;;;;;;;;;;5051593;28;20061;-66
2023/09/06 01:54:50;;;;;;;6.68;4.18;;;;;;;;;;5035133;28;20025;-67
2023/09/06 01:57:15;;;;;;;11.07;4.28;;;;;;;;;;5018730;28;20127;-66
2023/09/06 01:59:41;;;;;;;18.55;4.43;;;;;;;;;;5051768;28;20060;-66
2023/09/06 02:02:07;;;;;;;7.30;4.10;;;;;;;;;;5051372;28;20076;-68
2023/09/06 02:04:33;;;;;;;6.65;3.83;;;;;;;;;;5036090;28;20483;-66
2023/09/06 02:07:01;;;;;;;9.80;4.30;;;;;;;;;;5036297;28;20477;-67
2023/09/06 02:09:27;;;;;;;6.97;3.85;;;;;;;;;;5051728;28;20147;-67
2023/09/06 02:11:55;;;;;;;6.05;3.67;;;;;;;;;;5052028;28;20526;-70
2023/09/06 02:14:22;;;;;;;11.27;4.40;;;;;;;;;;5034914;28;20878;-66
2023/09/06 02:16:50;;;;;;;7.00;3.92;;;;;;;;;;5034680;28;20032;-66
2023/09/06 02:19:16;;;;;;;7.03;3.90;;;;;;;;;;5052156;28;20439;-66
2023/09/06 02:21:42;;;;;;;10.93;3.50;;;;;;;;;;5051258;28;20040;-66
2023/09/06 02:24:08;;;;;;;8.98;4.03;;;;;;;;;;5050959;28;20089;-66
2023/09/06 02:26:34;;;;;;;10.52;4.00;;;;;;;;;;5051169;28;20039;-66
2023/09/06 02:29:00;;;;;;;10.68;4.40;;;;;;;;;;5051331;28;20033;-66
2023/09/06 02:31:26;;;;;;;11.90;4.13;;;;;;;;;;5051819;28;20107;-66
2023/09/06 02:33:52;;;;;;;12.68;4.05;;;;;;;;;;5017733;28;20292;-66
2023/09/06 02:36:18;;;;;;;8.10;4.15;;;;;;;;;;5034506;28;20033;-66
2023/09/06 02:38:45;;;;;;;9.50;3.85;;;;;;;;;;5018614;28;20446;-67
2023/09/06 02:41:11;;;;;;;9.90;4.65;;;;;;;;;;5051897;28;20052;-67
2023/09/06 02:43:37;;;;;;;8.13;4.18;;;;;;;;;;5050778;28;20029;-67
2023/09/06 02:46:03;;;;;;;8.10;4.20;;;;;;;;;;5053614;28;20506;-73
2023/09/06 02:48:29;;;;;;;11.18;3.80;;;;;;;;;;5051763;28;20753;-67
2023/09/06 02:50:59;;;;;;;8.73;3.80;;;;;;;;;;5051629;28;20376;-67
2023/09/06 02:53:26;;;;;;;8.70;4.00;;;;;;;;;;5050555;28;20049;-66
2023/09/06 02:55:53;;;;;;;9.52;3.88;;;;;;;;;;5034235;28;20041;-66
2023/09/06 02:58:26;;;;;;;8.38;3.97;;;;;;;;;;5050894;28;20531;-66
2023/09/06 03:00:57;;;;;;;10.52;4.07;;;;;;;;;;5033902;28;20091;-67
2023/09/06 03:03:26;;;;;;;5.97;3.67;;;;;;;;;;5017892;28;20128;-68
2023/09/06 03:05:55;;;;;;;10.80;4.10;;;;;;;;;;5050805;28;20123;-67
2023/09/06 03:08:25;;;;;;;8.53;4.57;;;;;;;;;;5034256;28;20033;-69
2023/09/06 03:10:52;;;;;;;6.20;3.95;;;;;;;;;;5052256;28;20369;-68
2023/09/06 03:13:20;;;;;;;10.25;4.00;;;;;;;;;;5051286;28;20041;-69
2023/09/06 03:15:51;;;;;;;9.32;4.38;;;;;;;;;;5034178;28;20072;-70
2023/09/06 03:18:17;;;;;;;9.63;3.75;;;;;;;;;;5017499;28;20039;-68
2023/09/06 03:20:43;;;;;;;10.40;3.90;;;;;;;;;;5050453;28;20033;-68
2023/09/06 03:23:17;;;;;;;11.25;4.35;;;;;;;;;;5017555;28;20057;-68
2023/09/06 03:25:49;;;;;;;8.00;4.20;;;;;;;;;;5050368;28;20041;-68
2023/09/06 03:28:18;;;;;;;8.18;3.60;;;;;;;;;;5034126;28;20178;-68
2023/09/06 03:30:44;;;;;;;15.57;4.53;;;;;;;;;;5033882;28;20163;-68
2023/09/06 03:33:11;;;;;;;10.65;4.32;;;;;;;;;;5049973;28;20052;-68
2023/09/06 03:35:37;;;;;;;16.40;4.38;;;;;;;;;;5050437;28;20029;-68
2023/09/06 03:38:06;;;;;;;13.38;4.60;;;;;;;;;;5017349;28;20040;-69
2023/09/06 03:40:35;;;;;;;7.47;3.60;;;;;;;;;;5017271;28;20037;-68
2023/09/06 03:43:04;;;;;;;7.38;3.60;;;;;;;;;;5049965;28;20139;-70
2023/09/06 03:45:34;;;;;;;11.93;4.00;;;;;;;;;;5050186;28;20063;-66
2023/09/06 03:48:00;;;;;;;9.05;4.38;;;;;;;;;;5050879;28;20102;-69
2023/09/06 03:50:27;;;;;;;9.23;4.60;;;;;;;;;;5034893;28;21004;-68
2023/09/06 03:52:53;;;;;;;9.30;4.30;;;;;;;;;;5018930;28;20093;-69
2023/09/06 03:55:19;;;;;;;13.10;4.25;;;;;;;;;;5033613;28;20418;-69
2023/09/06 03:57:46;;;;;;;9.63;4.55;;;;;;;;;;5033611;28;20044;-70
2023/09/06 04:00:31;;;;;;;7.05;4.43;;;;;;;;;;5031365;28;20126;-70
2023/09/06 04:03:07;;;;;;;7.80;3.80;;;;;;;;;;5017693;28;20033;-70
2023/09/06 04:05:34;;;;;;;6.85;3.55;;;;;;;;;;5036972;28;20036;-69
2023/09/06 04:08:07;;;;;;;6.97;3.83;;;;;;;;;;4999222;28;20048;-69
2023/09/06 04:10:44;;;;;;;8.32;4.00;;;;;;;;;;4980186;28;20065;-69
2023/09/06 04:13:12;;;;;;;7.32;3.70;;;;;;;;;;4995782;28;20061;-69
2023/09/06 04:15:40;;;;;;;12.45;4.60;;;;;;;;;;4997766;28;20217;-70
2023/09/06 04:18:07;;;;;;;7.93;3.72;;;;;;;;;;4984427;28;20060;-70
2023/09/06 04:20:38;;;;;;;8.73;3.75;;;;;;;;;;4981465;28;20038;-69
2023/09/06 04:23:05;;;;;;;7.50;3.78;;;;;;;;;;4996782;28;20065;-69
2023/09/06 04:25:41;;;;;;;11.23;4.30;;;;;;;;;;4980701;28;20033;-68
2023/09/06 04:28:08;;;;;;;10.73;4.30;;;;;;;;;;5013166;28;20348;-68
2023/09/06 04:30:36;;;;;;;9.13;4.07;;;;;;;;;;4996464;28;20125;-69
2023/09/06 04:33:10;;;;;;;15.43;4.15;;;;;;;;;;4995826;28;20053;-69
2023/09/06 04:35:43;;;;;;;11.02;3.67;;;;;;;;;;4996159;28;20507;-69
2023/09/06 04:38:11;;;;;;;13.77;4.13;;;;;;;;;;5002520;28;20132;-71
2023/09/06 04:40:38;;;;;;;10.10;3.95;;;;;;;;;;5035851;28;20044;-69
2023/09/06 04:43:06;;;;;;;9.18;3.78;;;;;;;;;;5018878;28;20045;-69
2023/09/06 04:45:32;;;;;;;11.35;4.55;;;;;;;;;;5018772;28;20044;-69
2023/09/06 04:47:58;;;;;;;12.15;4.30;;;;;;;;;;5018719;28;20057;-70
2023/09/06 04:50:24;;;;;;;13.00;4.30;;;;;;;;;;5018709;28;20033;-69
2023/09/06 04:52:53;;;;;;;12.88;3.35;;;;;;;;;;5018493;28;20092;-69
2023/09/06 04:55:20;;;;;;;10.68;3.63;;;;;;;;;;5018970;28;20045;-69
2023/09/06 04:57:49;;;;;;;11.02;3.13;;;;;;;;;;5002885;28;20079;-70
2023/09/06 05:00:18;;;;;;;9.20;3.08;;;;;;;;;;5017286;28;20037;-71
2023/09/06 05:02:45;;;;;;;4.82;3.10;;;;;;;;;;5034570;28;20063;-69
2023/09/06 05:05:15;;;;;;;6.57;2.83;;;;;;;;;;5016731;28;20051;-70
2023/09/06 05:07:45;;;;;;;6.03;3.50;;;;;;;;;;5016329;28;20037;-70
2023/09/06 05:10:11;;;;;;;5.35;2.92;;;;;;;;;;5002271;28;20045;-73
2023/09/06 05:12:37;;;;;;;7.78;3.10;;;;;;;;;;5019371;28;20088;-69
2023/09/06 05:15:04;;;;;;;11.48;3.30;;;;;;;;;;5018611;28;20043;-70
2023/09/06 05:17:31;;;;;;;6.95;3.33;;;;;;;;;;5035876;28;20037;-69
2023/09/06 05:20:18;;;;;;;8.52;2.90;;;;;;;;;;5071438;28;20044;-69
2023/09/06 05:22:44;;;;;;;5.30;3.20;;;;;;;;;;5037934;28;20029;-70
2023/09/06 05:25:09;;;;;;;7.40;3.08;;;;;;;;;;5018227;28;20142;-71
2023/09/06 05:27:35;;;;;;;5.85;2.70;;;;;;;;;;5017895;28;20044;-69
2023/09/06 05:30:01;;;;;;;7.95;2.85;;;;;;;;;;5017717;28;20355;-69
2023/09/06 05:32:29;;;;;;;7.15;2.90;;;;;;;;;;5018291;28;20079;-70
2023/09/06 05:34:56;;;;;;;10.80;3.15;;;;;;;;;;5034938;28;20096;-69
2023/09/06 05:37:24;;;;;;;8.85;3.10;;;;;;;;;;5017941;28;20564;-69
2023/09/06 05:39:51;;;;;;;6.30;2.88;;;;;;;;;;5018032;28;20072;-70
2023/09/06 05:42:17;;;;;;;6.43;2.90;;;;;;;;;;5001269;28;20466;-69
2023/09/06 05:44:43;;;;;;;11.00;2.88;;;;;;;;;;5017842;28;20043;-73
2023/09/06 05:47:09;;;;;;;10.35;3.53;;;;;;;;;;5017942;28;20089;-69
2023/09/06 05:49:35;;;;;;;6.80;2.95;;;;;;;;;;5034665;28;20086;-69
2023/09/06 05:52:02;;;;;;;11.65;3.03;;;;;;;;;;5034079;28;20143;-70
2023/09/06 05:54:28;;;;;;;10.18;3.25;;;;;;;;;;5001351;28;20037;-69
2023/09/06 05:56:54;;;;;;;16.38;3.67;;;;;;;;;;5001050;28;20136;-69
2023/09/06 05:59:19;;;;;;;6.88;2.80;;;;;;;;;;5001492;28;20119;-69
2023/09/06 06:01:46;;;;;;;8.02;3.00;;;;;;;;;;5002346;28;20110;-70
2023/09/06 06:04:14;;;;;;;4.13;2.92;;;;;;;;;;5052963;28;20041;-72
2023/09/06 06:06:41;;;;;;;13.93;3.38;;;;;;;;;;5016299;28;20087;-69
2023/09/06 06:09:11;;;;;;;8.15;3.35;;;;;;;;;;5028091;28;20041;-69
2023/09/06 06:11:38;;;;;;;7.53;3.00;;;;;;;;;;5015801;28;20046;-69
2023/09/06 06:14:04;;;;;;;5.10;2.80;;;;;;;;;;5024139;28;20036;-70
2023/09/06 06:16:30;;;;;;;10.82;2.75;;;;;;;;;;4990261;28;20041;-70
2023/09/06 06:18:56;;;;;;;11.68;2.83;;;;;;;;;;5018782;28;20029;-70
2023/09/06 06:21:28;;;;;;;5.55;2.92;;;;;;;;;;5025608;28;20094;-70
2023/09/06 06:23:58;;;;;;;8.25;2.97;;;;;;;;;;5022388;28;20029;-70
2023/09/06 06:26:24;;;;;;;6.00;2.83;;;;;;;;;;4997896;28;20069;-70
2023/09/06 06:28:50;;;;;;;8.77;2.90;;;;;;;;;;5025270;28;20037;-71
2023/09/06 06:31:17;;;;;;;8.32;3.10;;;;;;;;;;5045771;28;20116;-69
2023/09/06 06:33:44;;;;;;;4.65;2.55;;;;;;;;;;4991595;28;20037;-69
2023/09/06 06:36:10;;;;;;;5.80;2.92;;;;;;;;;;5016512;28;20161;-69
2023/09/06 06:38:35;;;;;;;7.97;3.15;;;;;;;;;;5015978;28;20147;-69
2023/09/06 06:41:01;;;;;;;5.93;2.88;;;;;;;;;;5011585;28;20502;-70
2023/09/06 06:43:27;;;;;;;5.05;2.78;;;;;;;;;;4950008;28;20050;-69
2023/09/06 06:45:54;;;;;;;7.68;2.78;;;;;;;;;;4932439;28;20026;-69
2023/09/06 06:48:20;;;;;;;8.25;2.72;;;;;;;;;;4938101;28;20055;-69
2023/09/06 06:50:47;;;;;;;9.57;2.65;;;;;;;;;;4936741;28;20047;-70
2023/09/06 06:53:13;;;;;;;10.35;2.92;;;;;;;;;;4948218;28;20084;-69
2023/09/06 06:55:40;;;;;;;8.95;2.90;;;;;;;;;;4953811;28;20039;-71
2023/09/06 06:58:10;;;;;;;6.10;2.80;;;;;;;;;;4932006;28;20039;-70
2023/09/06 07:00:35;;;;;;;5.97;2.80;;;;;;;;;;4955563;28;20146;-68
2023/09/06 07:03:03;;;;;;;7.68;2.90;;;;;;;;;;4938769;28;20129;-69
2023/09/06 07:05:29;;;;;;;4.68;2.75;;;;;;;;;;4938619;28;20112;-69
2023/09/06 07:07:55;;;;;;;5.22;2.70;;;;;;;;;;4974310;28;20035;-70
2023/09/06 07:10:25;;;;;;;7.25;3.00;;;;;;;;;;4958076;28;20072;-69
2023/09/06 07:12:50;;;;;;;8.17;3.20;;;;;;;;;;4958099;28;20327;-69
2023/09/06 07:15:16;;;;;;;8.75;3.20;;;;;;;;;;4991554;28;20094;-70
2023/09/06 07:17:41;;;;;;;9.80;2.70;;;;;;;;;;5016654;28;20088;-69
2023/09/06 07:20:08;;;;;;;6.00;3.22;;;;;;;;;;5032946;28;20037;-70
2023/09/06 07:22:35;;;;;;;7.78;2.90;;;;;;;;;;5049468;28;20118;-71
2023/09/06 07:25:00;;;;;;;10.18;2.72;;;;;;;;;;5032923;28;20135;-70
2023/09/06 07:27:26;;;;;;;9.88;2.95;;;;;;;;;;5013991;28;20547;-69
2023/09/06 07:29:52;;;;;;;7.55;2.90;;;;;;;;;;5014393;28;20041;-69
2023/09/06 07:32:21;;;;;;;7.03;2.85;;;;;;;;;;5036237;28;20048;-72
2023/09/06 07:34:47;;;;;;;7.78;2.53;;;;;;;;;;5052882;28;20487;-70
2023/09/06 07:37:12;;;;;;;5.55;2.38;;;;;;;;;;5035965;28;20039;-71
2023/09/06 07:39:38;;;;;;;9.80;2.33;;;;;;;;;;5073668;28;20127;-71
2023/09/06 07:42:05;;;;;;;5.78;2.65;;;;;;;;;;5023549;28;20537;-71
2023/09/06 07:44:32;;;;;;;7.93;2.67;;;;;;;;;;5039832;28;20485;-71
2023/09/06 07:46:59;;;;;;;6.22;2.50;;;;;;;;;;5055993;28;20194;-71
2023/09/06 07:49:27;;;;;;;7.10;2.63;;;;;;;;;;5039536;28;20147;-72
2023/09/06 07:51:53;;;;;;;5.60;2.30;;;;;;;;;;5072765;28;20046;-72
2023/09/06 07:54:19;;;;;;;4.82;2.17;;;;;;;;;;5056490;28;20040;-72
2023/09/06 07:56:47;;;;;;;6.85;2.40;;;;;;;;;;5040247;28;20041;-72
2023/09/06 07:59:16;;;;;;;7.40;2.42;;;;;;;;;;5040063;28;20059;-72
2023/09/06 08:01:43;;;;;;;3.85;2.33;;;;;;;;;;5040701;28;20032;-71
2023/09/06 08:04:10;;;;;;;5.70;2.45;;;;;;;;;;5039820;28;20487;-72
2023/09/06 08:06:35;;;;;;;5.00;2.15;;;;;;;;;;5073349;28;20032;-72
2023/09/06 08:09:01;;;;;;;7.53;2.05;;;;;;;;;;5048428;28;20368;-72
2023/09/06 08:11:27;;;;;;;13.15;2.58;;;;;;;;;;5034126;28;20040;-72
2023/09/06 08:13:54;;;;;;;3.85;2.25;;;;;;;;;;5000802;28;20030;-72
2023/09/06 08:16:21;;;;;;;6.38;2.40;;;;;;;;;;5001138;28;20037;-71
2023/09/06 08:18:48;;;;;;;6.97;2.63;;;;;;;;;;5001303;28;20042;-71
2023/09/06 08:21:15;;;;;;;6.72;2.42;;;;;;;;;;5000999;28;20037;-72
2023/09/06 08:23:41;;;;;;;6.22;2.30;;;;;;;;;;5001068;28;20037;-71
2023/09/06 08:26:07;;;;;;;7.25;2.78;;;;;;;;;;5001081;28;20041;-71
2023/09/06 08:28:32;;;;;;;8.77;2.15;;;;;;;;;;5001036;28;20094;-70
2023/09/06 08:30:59;;;;;;;3.90;2.30;;;;;;;;;;5000824;28;20341;-71
2023/09/06 08:33:24;;;;;;;11.38;2.80;;;;;;;;;;5000872;28;20049;-71
2023/09/06 08:35:50;;;;;;;8.02;2.65;;;;;;;;;;5011209;28;20084;-71
2023/09/06 08:38:17;;;;;;;7.90;2.83;;;;;;;;;;5009128;28;20033;-71
2023/09/06 08:40:46;;;;;;;9.95;2.72;;;;;;;;;;5028473;28;20037;-72
2023/09/06 08:43:14;;;;;;;9.30;2.45;;;;;;;;;;5011438;28;20041;-72
2023/09/06 08:45:43;;;;;;;11.25;1.77;;;;;;;;;;5042353;28;20472;-72
2023/09/06 08:48:10;;;;;;;10.00;2.08;;;;;;;;;;5042163;28;20049;-73
2023/09/06 08:50:38;;;;;;;14.73;2.97;;;;;;;;;;5024846;28;20034;-72
2023/09/06 08:53:04;;;;;;;9.85;2.53;;;;;;;;;;5011388;28;20128;-72
2023/09/06 08:55:30;;;;;;;6.97;2.28;;;;;;;;;;5010964;28;20033;-72
2023/09/06 08:57:56;;;;;;;7.00;3.03;;;;;;;;;;5008444;28;20053;-72
2023/09/06 09:00:23;;;;;;;8.10;2.10;;;;;;;;;;5061088;28;20055;-72
2023/09/06 09:02:50;;;;;;;4.93;1.90;;;;;;;;;;5010761;28;20044;-71
2023/09/06 09:05:22;;;;;;;15.27;2.00;;;;;;;;;;5037642;28;20412;-71
2023/09/06 09:07:49;;;;;;;8.88;2.45;;;;;;;;;;5053196;28;20139;-71
2023/09/06 09:10:15;;;;;;;13.05;2.63;;;;;;;;;;5053501;28;20118;-71
2023/09/06 09:12:41;;;;;;;11.30;2.20;;;;;;;;;;5052790;28;20363;-71
2023/09/06 09:15:08;;;;;;;5.57;2.22;;;;;;;;;;5054239;28;20051;-70
2023/09/06 09:17:39;;;;;;;7.43;2.55;;;;;;;;;;5054514;28;20093;-71
2023/09/06 09:20:09;;;;;;;3.97;1.95;;;;;;;;;;5071370;28;20037;-70
2023/09/06 09:22:37;;;;;;;8.02;1.98;;;;;;;;;;5038272;28;20052;-71
2023/09/06 09:25:17;;;;;;;16.98;2.70;;;;;;;;;;5034745;28;20463;-71
2023/09/06 09:28:06;;;;;;;4.22;1.80;;;;;;;;;;5003121;28;20044;-71
2023/09/06 09:30:33;;;;;;;14.40;2.60;;;;;;;;;;4999011;28;20037;-70
2023/09/06 09:33:03;;;;;;;9.93;2.15;;;;;;;;;;4998314;28;20495;-70
2023/09/06 09:35:31;;;;;;;13.80;2.00;;;;;;;;;;5014594;28;20041;-70
2023/09/06 09:37:59;;;;;;;12.52;3.15;;;;;;;;;;4998626;28;20084;-71
2023/09/06 09:40:34;;;;;;;6.00;1.90;;;;;;;;;;4998540;28;20110;-70
2023/09/06 09:43:04;;;;;;;9.88;2.40;;;;;;;;;;4998411;28;20122;-70
2023/09/06 09:45:38;;;;;;;5.47;2.00;;;;;;;;;;4998365;28;20098;-71
2023/09/06 09:48:05;;;;;;;4.32;2.10;;;;;;;;;;5014493;28;20054;-71
2023/09/06 09:50:46;;;;;;;9.82;2.50;;;;;;;;;;4998136;28;20115;-70
2023/09/06 09:53:12;;;;;;;14.75;2.75;;;;;;;;;;4998330;28;20049;-70
2023/09/06 09:55:45;;;;;;;11.13;2.38;;;;;;;;;;5014524;28;20130;-70
2023/09/06 09:58:12;;;;;;;8.20;2.28;;;;;;;;;;5030948;28;20029;-70
2023/09/06 10:00:39;;;;;;;4.55;1.80;;;;;;;;;;5030695;28;20064;-70
2023/09/06 10:03:08;;;;;;;3.67;1.90;;;;;;;;;;5047425;28;20376;-70
2023/09/06 10:05:36;;;;;;;14.35;2.10;;;;;;;;;;5030490;28;20075;-70
2023/09/06 10:08:05;;;;;;;6.13;2.40;;;;;;;;;;5015114;28;20033;-70
2023/09/06 10:10:32;;;;;;;7.20;2.22;;;;;;;;;;5015289;28;20033;-70
2023/09/06 10:13:04;;;;;;;3.78;1.52;;;;;;;;;;5015194;28;20056;-70
2023/09/06 10:15:32;;;;;;;8.95;2.45;;;;;;;;;;5015260;28;20460;-70
2023/09/06 10:17:59;;;;;;;7.63;1.83;;;;;;;;;;5015132;28;20033;-70
2023/09/06 10:20:26;;;;;;;5.05;2.13;;;;;;;;;;5030707;28;20045;-70
2023/09/06 10:22:55;;;;;;;7.75;1.85;;;;;;;;;;4997754;28;20460;-71
2023/09/06 10:25:25;;;;;;;4.03;1.52;;;;;;;;;;4997354;28;20383;-71
2023/09/06 10:27:53;;;;;;;3.60;1.70;;;;;;;;;;4974651;28;20549;-70
2023/09/06 10:31:34;;;;;;;3.20;1.80;;;;;;;;;;4974653;28;20129;-71
2023/09/06 10:33:42;;;;;;;5.13;1.40;;;;;;;;;;4962421;28;20105;-71
2023/09/06 10:36:27;;;;;;;8.40;1.58;;;;;;;;;;4991625;28;20087;-70
2023/09/06 10:38:57;;;;;;;7.03;1.60;;;;;;;;;;4958701;28;20053;-71
2023/09/06 10:41:23;;;;;;;2.75;1.67;;;;;;;;;;4974812;28;20096;-70
2023/09/06 10:43:58;;;;;;;5.30;1.58;;;;;;;;;;4990967;28;20105;-70
2023/09/06 10:46:43;;;;;;;5.03;1.95;;;;;;;;;;4958312;28;20186;-71
2023/09/06 10:49:16;;;;;;;5.18;2.03;;;;;;;;;;4942743;28;20034;-70
2023/09/06 10:51:56;;;;;;;4.68;2.00;;;;;;;;;;5003088;28;20647;-70
2023/09/06 10:54:22;;;;;;;10.52;1.88;;;;;;;;;;4977742;28;20034;-70
2023/09/06 10:56:57;;;;;;;11.02;1.90;;;;;;;;;;4961691;28;20389;-70
2023/09/06 10:59:22;;;;;;;8.65;1.90;;;;;;;;;;4978066;28;20050;-70
2023/09/06 11:02:07;;;;;;;9.40;2.05;;;;;;;;;;4977882;28;20037;-70
2023/09/06 11:04:33;;;;;;;9.20;2.13;;;;;;;;;;4999011;28;20072;-71
2023/09/06 11:07:03;;;;;;;4.85;1.80;;;;;;;;;;5014754;28;20034;-71
2023/09/06 11:09:29;;;;;;;2.80;1.53;;;;;;;;;;5014767;28;20038;-70
2023/09/06 11:11:55;;;;;;;3.00;1.85;;;;;;;;;;4998465;28;20380;-71
2023/09/06 11:14:27;;;;;;;2.83;1.42;;;;;;;;;;5018133;28;20033;-71
2023/09/06 11:16:53;;;;;;;4.10;1.30;;;;;;;;;;5018337;28;20468;-75
2023/09/06 11:19:30;;;;;;;3.03;1.30;;;;;;;;;;5018490;28;20056;-71
2023/09/06 11:22:09;;;;;;;4.75;1.60;;;;;;;;;;5018147;28;20041;-71
2023/09/06 11:24:35;;;;;;;;;;;;;;;;;;5017930;28;20146;-71
2023/09/06 11:27:21;;;;;;;11.50;1.40;;;;;;;;;;5018186;28;20074;-74
2023/09/06 11:29:57;;;;;;;2.00;1.30;;;;;;;;;;5018112;28;20038;-72
2023/09/06 11:32:23;;;;;;;6.18;1.77;;;;;;;;;;5018146;28;20041;-71
2023/09/06 11:34:49;;;;;;;7.88;1.50;;;;;;;;;;5018847;28;20076;-71
2023/09/06 11:37:15;;;;;;;12.35;2.20;;;;;;;;;;5020353;28;20052;-71
2023/09/06 11:39:42;;;;;;;11.55;1.55;;;;;;;;;;5037198;28;20102;-70
2023/09/06 11:42:13;;;;;;;4.95;1.38;;;;;;;;;;5018467;28;20563;-71
2023/09/06 11:44:43;;;;;;;5.18;1.60;;;;;;;;;;5018155;28;20038;-71
2023/09/06 11:47:10;;;;;;;5.95;1.95;;;;;;;;;;5034624;28;20061;-71
2023/09/06 11:49:37;;;;;;;5.45;1.90;;;;;;;;;;5018728;28;20042;-70
2023/09/06 11:52:05;;;;;;;3.15;1.65;;;;;;;;;;5018998;28;20067;-73
2023/09/06 11:54:38;;;;;;;4.05;1.50;;;;;;;;;;5017717;28;20029;-70
2023/09/06 11:57:08;;;;;;;3.92;1.40;;;;;;;;;;5033130;28;20541;-71
2023/09/06 11:59:34;;;;;;;7.90;1.60;;;;;;;;;;5017637;28;20029;-72
2023/09/06 12:02:02;;;;;;;7.78;1.63;;;;;;;;;;5002021;28;20354;-69
2023/09/06 12:04:31;;;;;;;9.55;1.60;;;;;;;;;;5018724;28;20111;-69
2023/09/06 12:06:58;;;;;;;6.70;1.83;;;;;;;;;;5017707;28;20030;-70
2023/09/06 12:09:24;;;;;;;3.10;1.50;;;;;;;;;;5019560;28;20118;-71
2023/09/06 12:11:53;;;;;;;2.28;1.42;;;;;;;;;;5035792;28;20049;-68
2023/09/06 12:14:20;;;;;;;2.78;1.77;;;;;;;;;;5019410;28;20570;-71
2023/09/06 12:16:48;;;;;;;5.03;1.75;;;;;;;;;;5036408;28;20044;-72
2023/09/06 12:19:16;;;;;;;2.70;1.67;;;;;;;;;;5059481;28;20044;-71
2023/09/06 12:21:44;;;;;;;5.70;1.98;;;;;;;;;;5059595;28;20039;-71
2023/09/06 12:24:09;;;;;;;4.70;1.67;;;;;;;;;;5058606;28;20054;-71
2023/09/06 12:26:35;;;;;;;6.38;2.10;;;;;;;;;;5075643;28;20134;-73
2023/09/06 12:29:03;;;;;;;6.43;1.90;;;;;;;;;;5059181;28;20043;-71
2023/09/06 12:31:30;;;;;;;5.82;2.03;;;;;;;;;;5075820;28;20039;-71
2023/09/06 12:33:56;;;;;;;8.45;2.58;;;;;;;;;;5075310;28;20067;-71
2023/09/06 12:36:23;;;;;;;4.90;2.10;;;;;;;;;;5073215;28;20126;-71
2023/09/06 12:38:52;;;;;;;5.25;1.98;;;;;;;;;;5074846;28;20046;-70
2023/09/06 12:41:43;;;;;;;6.43;2.30;;;;;;;;;;5027089;28;20056;-71
2023/09/06 12:44:09;;;;;;;5.70;1.63;;;;;;;;;;5036440;28;20048;-71
2023/09/06 12:46:34;;;;;;;6.90;1.90;;;;;;;;;;5038274;28;20467;-71
2023/09/06 12:49:01;;;;;;;8.48;2.20;;;;;;;;;;5021926;28;20036;-71
2023/09/06 12:51:26;;;;;;;4.93;2.28;;;;;;;;;;5016561;28;20476;-71
2023/09/06 12:53:53;;;;;;;9.32;2.25;;;;;;;;;;5016746;28;20059;-71
2023/09/06 12:56:19;;;;;;;6.25;2.00;;;;;;;;;;5016877;28;20041;-71
2023/09/06 12:58:45;;;;;;;7.72;2.30;;;;;;;;;;5033516;28;20041;-70
2023/09/06 13:01:11;;;;;;;7.43;2.20;;;;;;;;;;5016618;28;20048;-70
2023/09/06 13:03:37;;;;;;;8.88;2.97;;;;;;;;;;5033773;28;20380;-73
2023/09/06 13:06:08;;;;;;;7.20;2.30;;;;;;;;;;4995789;28;20049;-71
2023/09/06 13:08:36;;;;;;;10.43;2.17;;;;;;;;;;4963923;28;20050;-71
2023/09/06 13:11:03;;;;;;;5.45;1.67;;;;;;;;;;4979637;28;20045;-71
2023/09/06 13:13:29;;;;;;;7.90;1.83;;;;;;;;;;4979365;28;20362;-70
2023/09/06 13:15:54;;;;;;;5.60;1.73;;;;;;;;;;4979425;28;20061;-70
2023/09/06 13:18:20;;;;;;;10.65;2.30;;;;;;;;;;4980111;28;20076;-71
2023/09/06 13:20:46;;;;;;;8.48;2.47;;;;;;;;;;4979887;28;20411;-70
2023/09/06 13:23:14;;;;;;;7.47;2.30;;;;;;;;;;4963150;28;20144;-71
2023/09/06 13:25:39;;;;;;;9.38;2.42;;;;;;;;;;4979109;28;20103;-71
2023/09/06 13:28:05;;;;;;;16.23;2.63;;;;;;;;;;4995816;28;20045;-70
2023/09/06 13:30:32;;;;;;;4.60;1.92;;;;;;;;;;4978953;28;20132;-71
2023/09/06 13:32:59;;;;;;;3.80;1.85;;;;;;;;;;4963217;28;20359;-71
2023/09/06 13:35:25;;;;;;;3.72;1.60;;;;;;;;;;4978848;28;20045;-71
2023/09/06 13:37:52;;;;;;;10.13;1.83;;;;;;;;;;4977705;28;20049;-71
2023/09/06 13:40:18;;;;;;;3.55;1.50;;;;;;;;;;4999767;28;20392;-71
2023/09/06 13:42:45;;;;;;;3.00;1.58;;;;;;;;;;4995046;28;20127;-71
2023/09/06 13:45:12;;;;;;;8.10;1.55;;;;;;;;;;4963352;28;20059;-71
2023/09/06 13:47:43;;;;;;;6.97;1.67;;;;;;;;;;4995175;28;20492;-72
2023/09/06 13:50:09;;;;;;;6.38;1.65;;;;;;;;;;4995152;28;20069;-71
2023/09/06 13:52:34;;;;;;;6.75;1.90;;;;;;;;;;4995384;28;20053;-71
2023/09/06 13:55:00;;;;;;;4.70;1.42;;;;;;;;;;4994809;28;20082;-71
2023/09/06 13:57:28;;;;;;;4.80;1.80;;;;;;;;;;4994870;28;20065;-71
2023/09/06 13:59:54;;;;;;;5.05;1.75;;;;;;;;;;4978657;28;20141;-71
2023/09/06 14:02:20;;;;;;;5.95;1.50;;;;;;;;;;5011305;28;20105;-71
2023/09/06 14:04:47;;;;;;;4.43;2.10;;;;;;;;;;4994430;28;20431;-71
2023/09/06 14:07:13;;;;;;;5.93;1.67;;;;;;;;;;4994655;28;20123;-71
2023/09/06 14:09:40;;;;;;;9.68;2.05;;;;;;;;;;5011037;28;20145;-71
2023/09/06 14:12:07;;;;;;;3.50;1.63;;;;;;;;;;4994653;28;20038;-70
2023/09/06 14:14:33;;;;;;;5.15;1.55;;;;;;;;;;4997892;28;20079;-70
2023/09/06 14:17:00;;;;;;;5.50;1.58;;;;;;;;;;5030531;28;20185;-71
2023/09/06 14:19:27;;;;;;;12.65;1.60;;;;;;;;;;5030398;28;20144;-70
2023/09/06 14:21:57;;;;;;;7.55;1.60;;;;;;;;;;5014039;28;20049;-70
2023/09/06 14:24:22;;;;;;;7.50;1.50;;;;;;;;;;4998233;28;20507;-71
2023/09/06 14:26:48;;;;;;;11.18;1.70;;;;;;;;;;4981886;28;20091;-71
2023/09/06 14:29:14;;;;;;;8.68;1.60;;;;;;;;;;5000462;28;20083;-70
2023/09/06 14:31:40;;;;;;;7.80;2.33;;;;;;;;;;5016977;28;20037;-71
2023/09/06 14:34:06;;;;;;;5.80;1.38;;;;;;;;;;4997847;28;20491;-71
2023/09/06 14:36:33;;;;;;;7.65;1.48;;;;;;;;;;4995169;28;20037;-71
2023/09/06 14:39:00;;;;;;;3.33;1.65;;;;;;;;;;5031864;28;20073;-70
2023/09/06 14:41:26;;;;;;;2.80;1.25;;;;;;;;;;5031578;28;20039;-71
2023/09/06 14:43:51;;;;;;;11.75;1.90;;;;;;;;;;5014885;28;20037;-70
2023/09/06 14:46:18;;;;;;;5.35;1.70;;;;;;;;;;5014471;28;20041;-70